createdAt,value
2022-10-17T00:00:57.708Z,7.77
2022-10-17T00:03:27.564Z,7.69
2022-10-17T00:05:55.375Z,7.69
2022-10-17T00:08:23.248Z,7.68
2022-10-17T00:11:03.112Z,7.66
2022-10-17T00:15:59.292Z,7.74
2022-10-17T00:18:26.732Z,7.73
2022-10-17T00:20:54.137Z,7.71
2022-10-17T00:23:21.759Z,7.71
2022-10-17T00:25:58.500Z,7.76
2022-10-17T00:28:26.060Z,7.63
2022-10-17T00:31:02.097Z,7.71
2022-10-17T00:33:31.070Z,7.63
2022-10-17T00:36:13.655Z,7.64
2022-10-17T00:38:45.423Z,7.65
2022-10-17T00:41:15.383Z,7.58
2022-10-17T00:44:04.705Z,7.64
2022-10-17T00:46:36.827Z,7.63
2022-10-17T00:49:11.033Z,7.64
2022-10-17T00:51:45.315Z,7.62
2022-10-17T00:54:15.231Z,7.58
2022-10-17T00:56:43.926Z,7.47
2022-10-17T00:59:13.797Z,7.50
2022-10-17T01:01:43.140Z,7.48
2022-10-17T01:04:10.676Z,7.48
2022-10-17T01:06:40.187Z,7.51
2022-10-17T01:09:07.666Z,7.48
2022-10-17T01:12:04.168Z,7.48
2022-10-17T01:14:56.358Z,7.58
2022-10-17T01:17:35.951Z,7.50
2022-10-17T01:20:26.512Z,7.42
2022-10-17T01:23:16.874Z,7.44
2022-10-17T01:26:23.144Z,7.35
2022-10-17T01:29:15.559Z,7.35
2022-10-17T01:31:49.077Z,7.31
2022-10-17T01:34:36.188Z,7.34
2022-10-17T01:37:16.386Z,7.25
2022-10-17T01:39:53.120Z,7.25
2022-10-17T01:42:27.678Z,7.26
2022-10-17T01:45:10.796Z,7.30
2022-10-17T01:47:41.142Z,7.28
2022-10-17T01:50:18.818Z,7.30
2022-10-17T01:52:53.139Z,7.32
2022-10-17T01:55:32.764Z,7.23
2022-10-17T01:58:34.898Z,7.31
2022-10-17T02:01:06.655Z,7.23
2022-10-17T02:03:35.348Z,7.24
2022-10-17T02:06:02.903Z,7.31
2022-10-17T02:08:43.237Z,7.40
2022-10-17T02:11:25.336Z,7.42
2022-10-17T02:17:00.061Z,7.41
2022-10-17T02:19:55.043Z,7.44
2022-10-17T02:22:31.819Z,7.34
2022-10-17T02:25:12.979Z,7.30
2022-10-17T02:28:15.924Z,7.25
2022-10-17T02:30:53.348Z,7.31
2022-10-17T02:33:44.083Z,7.27
2022-10-17T02:36:19.951Z,7.37
2022-10-17T02:38:49.087Z,7.24
2022-10-17T02:41:19.602Z,7.29
2022-10-17T02:43:50.167Z,7.27
2022-10-17T02:46:21.957Z,7.27
2022-10-17T02:48:57.631Z,7.21
2022-10-17T02:51:45.389Z,7.37
2022-10-17T02:54:39.627Z,7.31
2022-10-17T02:57:29.282Z,7.18
2022-10-17T03:00:00.171Z,7.18
2022-10-17T03:02:28.733Z,7.19
2022-10-17T03:04:56.875Z,7.15
2022-10-17T03:07:24.397Z,7.18
2022-10-17T03:09:51.823Z,7.15
2022-10-17T03:12:19.385Z,7.28
2022-10-17T03:14:46.911Z,7.24
2022-10-17T03:17:14.318Z,7.17
2022-10-17T03:19:41.930Z,7.19
2022-10-17T03:22:09.815Z,7.16
2022-10-17T03:24:38.150Z,7.11
2022-10-17T03:27:06.091Z,7.15
2022-10-17T03:29:33.689Z,7.11
2022-10-17T03:32:02.779Z,7.05
2022-10-17T03:34:30.302Z,7.08
2022-10-17T03:36:57.733Z,7.07
2022-10-17T03:39:27.643Z,7.08
2022-10-17T03:41:55.178Z,7.19
2022-10-17T03:44:22.679Z,7.21
2022-10-17T03:46:50.233Z,7.12
2022-10-17T03:49:18.446Z,7.21
2022-10-17T03:51:46.104Z,7.16
2022-10-17T03:54:15.763Z,7.18
2022-10-17T03:56:44.027Z,7.24
2022-10-17T03:59:15.495Z,7.12
2022-10-17T04:01:46.724Z,7.24
2022-10-17T04:04:14.470Z,7.14
2022-10-17T04:06:41.897Z,7.26
2022-10-17T04:09:12.932Z,7.18
2022-10-17T04:11:52.724Z,7.25
2022-10-17T04:14:21.585Z,7.15
2022-10-17T04:16:49.098Z,7.23
2022-10-17T04:19:20.879Z,7.09
2022-10-17T04:21:48.673Z,7.16
2022-10-17T04:24:16.535Z,7.30
2022-10-17T04:27:04.794Z,7.31
2022-10-17T04:29:34.610Z,7.30
2022-10-17T04:32:10.765Z,7.35
2022-10-17T04:34:50.243Z,7.25
2022-10-17T04:37:20.340Z,7.27
2022-10-17T04:39:50.330Z,7.27
2022-10-17T04:42:17.855Z,7.33
2022-10-17T04:44:46.426Z,7.35
2022-10-17T04:47:17.010Z,7.48
2022-10-17T04:49:45.131Z,7.51
2022-10-17T04:52:16.238Z,7.40
2022-10-17T04:54:45.444Z,7.57
2022-10-17T04:57:14.891Z,7.49
2022-10-17T04:59:48.624Z,7.46
2022-10-17T05:02:27.999Z,7.52
2022-10-17T05:04:56.416Z,7.56
2022-10-17T05:07:24.503Z,7.59
2022-10-17T05:10:18.238Z,7.61
2022-10-17T05:12:49.433Z,7.75
2022-10-17T05:15:19.114Z,7.71
2022-10-17T05:17:46.851Z,7.70
2022-10-17T05:20:14.372Z,7.78
2022-10-17T05:22:42.498Z,7.86
2022-10-17T05:25:11.812Z,7.81
2022-10-17T05:27:40.056Z,7.73
2022-10-17T05:30:10.080Z,7.75
2022-10-17T05:32:39.019Z,7.68
2022-10-17T05:35:06.967Z,7.72
2022-10-17T05:37:34.615Z,7.78
2022-10-17T05:40:04.085Z,7.71
2022-10-17T05:42:32.355Z,7.73
2022-10-17T05:45:00.298Z,7.77
2022-10-17T05:47:28.413Z,7.81
2022-10-17T05:49:56.260Z,7.96
2022-10-17T05:52:31.697Z,8.04
2022-10-17T05:55:10.897Z,8.01
2022-10-17T05:57:39.631Z,8.06
2022-10-17T06:00:11.662Z,8.29
2022-10-17T06:02:43.482Z,8.39
2022-10-17T06:05:14.610Z,8.46
2022-10-17T06:07:42.704Z,8.46
2022-10-17T06:10:13.004Z,8.32
2022-10-17T06:12:40.663Z,8.24
2022-10-17T06:15:08.911Z,8.19
2022-10-17T06:17:36.718Z,8.24
2022-10-17T06:20:05.023Z,8.35
2022-10-17T06:22:33.241Z,8.37
2022-10-17T06:25:02.334Z,8.46
2022-10-17T06:27:30.560Z,8.54
2022-10-17T06:29:58.120Z,8.58
2022-10-17T06:32:25.645Z,8.46
2022-10-17T06:34:53.080Z,8.53
2022-10-17T06:37:20.644Z,8.53
2022-10-17T06:39:48.656Z,8.60
2022-10-17T06:42:20.671Z,8.54
2022-10-17T06:45:09.215Z,8.45
2022-10-17T06:47:41.762Z,8.52
2022-10-17T06:50:26.725Z,8.53
2022-10-17T06:53:11.571Z,8.50
2022-10-17T06:56:01.501Z,8.68
2022-10-17T06:58:49.525Z,8.91
2022-10-17T07:01:31.505Z,9.11
2022-10-17T07:04:01.274Z,9.29
2022-10-17T07:06:30.394Z,9.35
2022-10-17T07:09:02.862Z,9.35
2022-10-17T07:11:30.498Z,9.42
2022-10-17T07:13:58.022Z,9.50
2022-10-17T07:16:28.115Z,9.60
2022-10-17T07:19:03.809Z,9.58
2022-10-17T07:21:38.949Z,9.56
2022-10-17T07:24:08.738Z,9.39
2022-10-17T07:26:36.444Z,9.25
2022-10-17T07:29:06.463Z,9.21
2022-10-17T07:31:45.696Z,9.21
2022-10-17T07:34:13.418Z,9.22
2022-10-17T07:36:41.271Z,9.17
2022-10-17T07:39:09.879Z,9.27
2022-10-17T07:41:38.704Z,9.16
2022-10-17T07:44:07.531Z,9.10
2022-10-17T07:46:40.801Z,9.12
2022-10-17T07:49:08.895Z,9.14
2022-10-17T07:51:36.657Z,9.18
2022-10-17T07:54:06.057Z,9.06
2022-10-17T07:56:33.643Z,9.05
2022-10-17T07:59:03.784Z,9.04
2022-10-17T08:01:34.255Z,9.04
2022-10-17T08:04:01.707Z,8.97
2022-10-17T08:06:38.550Z,9.09
2022-10-17T08:09:49.700Z,9.10
2022-10-17T08:20:29.587Z,8.60
2022-10-17T08:27:59.470Z,8.60
2022-10-17T08:39:29.005Z,8.69
2022-10-17T08:42:55.584Z,8.69
2022-10-17T08:46:05.950Z,8.64
2022-10-17T08:49:17.686Z,8.57
2022-10-17T08:56:49.019Z,8.61
2022-10-17T08:59:59.478Z,8.72
2022-10-17T09:02:58.827Z,8.73
2022-10-17T09:05:37.342Z,8.53
2022-10-17T09:08:21.172Z,8.56
2022-10-17T09:10:58.239Z,8.49
2022-10-17T09:13:31.213Z,8.46
2022-10-17T09:16:11.446Z,8.44
2022-10-17T09:18:47.928Z,8.40
2022-10-17T09:21:25.409Z,8.39
2022-10-17T09:24:08.905Z,8.27
2022-10-17T09:26:39.460Z,8.31
2022-10-17T09:29:17.767Z,8.17
2022-10-17T09:32:17.565Z,8.23
2022-10-17T09:34:45.522Z,8.11
2022-10-17T09:37:15.619Z,8.10
2022-10-17T09:39:44.258Z,8.14
2022-10-17T09:42:15.578Z,8.20
2022-10-17T09:44:54.674Z,8.38
2022-10-17T09:47:47.254Z,8.58
2022-10-17T09:50:26.368Z,8.52
2022-10-17T09:52:55.749Z,8.55
2022-10-17T09:55:49.465Z,8.52
2022-10-17T09:58:16.970Z,8.56
2022-10-17T10:00:47.675Z,8.39
2022-10-17T10:03:25.122Z,8.39
2022-10-17T10:06:08.050Z,8.46
2022-10-17T10:08:55.769Z,8.64
2022-10-17T10:11:43.589Z,8.87
2022-10-17T10:14:13.706Z,9.09
2022-10-17T10:16:43.980Z,9.05
2022-10-17T10:19:34.554Z,9.20
2022-10-17T10:22:14.652Z,9.10
2022-10-17T10:24:42.414Z,8.94
2022-10-17T10:27:18.216Z,8.89
2022-10-17T10:29:53.157Z,8.87
2022-10-17T10:32:22.629Z,8.84
2022-10-17T10:34:54.816Z,8.88
2022-10-17T10:37:40.111Z,9.12
2022-10-17T10:40:18.688Z,9.03
2022-10-17T10:42:55.296Z,8.97
2022-10-17T10:48:32.823Z,8.90
2022-10-17T10:51:12.582Z,8.85
2022-10-17T10:53:53.506Z,8.99
2022-10-17T10:56:22.528Z,8.92
2022-10-17T10:59:08.496Z,9.04
2022-10-17T11:01:44.989Z,9.04
2022-10-17T11:04:20.443Z,9.15
2022-10-17T11:06:51.371Z,8.94
2022-10-17T11:09:30.072Z,8.96
2022-10-17T11:12:34.180Z,9.05
2022-10-17T11:15:19.675Z,8.99
2022-10-17T11:17:59.769Z,9.12
2022-10-17T11:20:38.342Z,8.94
2022-10-17T11:23:21.576Z,8.81
2022-10-17T11:25:51.847Z,8.87
2022-10-17T11:28:22.336Z,8.85
2022-10-17T11:30:56.313Z,8.94
2022-10-17T11:34:07.164Z,9.09
2022-10-17T11:36:40.548Z,8.98
2022-10-17T11:39:15.241Z,9.01
2022-10-17T11:41:44.976Z,9.01
2022-10-17T11:44:32.290Z,9.04
2022-10-17T11:47:14.450Z,8.97
2022-10-17T11:49:50.742Z,9.05
2022-10-17T11:52:54.911Z,9.06
2022-10-17T11:55:23.594Z,9.05
2022-10-17T11:58:18.552Z,9.08
2022-10-17T12:00:48.883Z,8.99
2022-10-17T12:03:49.302Z,8.96
2022-10-17T12:06:20.335Z,8.96
2022-10-17T12:09:26.203Z,9.03
2022-10-17T12:12:02.445Z,8.89
2022-10-17T12:14:48.708Z,8.90
2022-10-17T12:17:39.235Z,8.93
2022-10-17T12:20:24.617Z,9.00
2022-10-17T12:23:13.048Z,9.03
2022-10-17T12:25:52.918Z,8.97
2022-10-17T12:28:44.853Z,8.99
2022-10-17T12:31:19.216Z,9.01
2022-10-17T12:33:46.639Z,8.93
2022-10-17T12:36:17.299Z,8.96
2022-10-17T12:38:49.877Z,8.91
2022-10-17T12:41:38.150Z,8.95
2022-10-17T12:44:14.974Z,9.11
2022-10-17T12:46:52.647Z,9.14
2022-10-17T12:49:38.494Z,9.25
2022-10-17T12:52:48.221Z,9.17
2022-10-17T12:55:20.148Z,9.01
2022-10-17T12:57:49.480Z,8.97
2022-10-17T13:00:22.399Z,9.06
2022-10-17T13:02:54.770Z,9.02
2022-10-17T13:05:30.008Z,9.09
2022-10-17T13:08:00.970Z,9.02
2022-10-17T13:10:31.061Z,9.01
2022-10-17T13:13:15.948Z,9.05
2022-10-17T13:15:51.594Z,9.12
2022-10-17T13:18:28.039Z,9.16
2022-10-17T13:21:05.460Z,9.15
2022-10-17T13:23:38.062Z,9.19
2022-10-17T13:26:31.944Z,9.28
2022-10-17T13:29:11.354Z,9.29
2022-10-17T13:31:41.352Z,9.18
2022-10-17T13:34:21.148Z,9.27
2022-10-17T13:36:53.575Z,9.24
2022-10-17T13:39:38.296Z,9.16
2022-10-17T13:42:39.507Z,9.35
2022-10-17T13:45:19.096Z,9.22
2022-10-17T13:47:47.269Z,9.19
2022-10-17T13:50:43.543Z,9.27
2022-10-17T13:53:33.458Z,9.28
2022-10-17T13:56:26.470Z,9.20
2022-10-17T13:58:51.320Z,9.16
2022-10-17T14:01:21.324Z,9.16
2022-10-17T14:03:57.015Z,9.14
2022-10-17T14:06:30.908Z,9.17
2022-10-17T14:09:01.894Z,9.12
2022-10-17T14:11:41.688Z,9.25
2022-10-17T14:14:22.296Z,9.20
2022-10-17T14:16:50.059Z,9.15
2022-10-17T14:19:30.655Z,9.17
2022-10-17T14:22:27.070Z,9.10
2022-10-17T14:24:58.023Z,9.11
2022-10-17T14:27:38.312Z,9.05
2022-10-17T14:31:01.687Z,8.89
2022-10-17T14:33:23.438Z,8.86
2022-10-17T14:35:53.005Z,8.83
2022-10-17T14:38:21.680Z,8.83
2022-10-17T14:41:04.805Z,8.74
2022-10-17T14:43:44.647Z,8.85
2022-10-17T14:46:15.964Z,8.88
2022-10-17T14:48:43.909Z,8.77
2022-10-17T14:51:17.042Z,8.72
2022-10-17T14:54:05.458Z,8.82
2022-10-17T14:56:42.145Z,8.84
2022-10-17T14:59:21.429Z,8.77
2022-10-17T15:01:53.149Z,8.79
2022-10-17T15:04:20.827Z,8.71
2022-10-17T15:06:54.564Z,8.74
2022-10-17T15:09:23.710Z,8.67
2022-10-17T15:11:51.110Z,8.72
2022-10-17T15:14:18.574Z,8.74
2022-10-17T15:16:46.044Z,8.73
2022-10-17T15:19:14.077Z,8.69
2022-10-17T15:21:46.164Z,8.72
2022-10-17T15:24:15.878Z,8.67
2022-10-17T15:26:43.495Z,8.66
2022-10-17T15:29:15.535Z,8.58
2022-10-17T15:31:43.034Z,8.61
2022-10-17T15:34:10.435Z,8.63
2022-10-17T15:36:43.018Z,8.73
2022-10-17T15:39:10.839Z,8.75
2022-10-17T15:41:38.244Z,8.80
2022-10-17T15:44:05.784Z,8.91
2022-10-17T15:46:35.066Z,8.84
2022-10-17T15:49:05.874Z,8.81
2022-10-17T15:51:33.650Z,8.80
2022-10-17T15:54:01.786Z,8.79
2022-10-17T15:56:41.484Z,8.90
2022-10-17T15:59:19.008Z,9.00
2022-10-17T16:01:46.348Z,9.17
2022-10-17T16:04:15.598Z,9.15
2022-10-17T16:06:43.611Z,9.15
2022-10-17T16:09:11.438Z,9.13
2022-10-17T16:11:41.945Z,9.10
2022-10-17T16:14:15.539Z,9.19
2022-10-17T16:16:43.412Z,9.22
2022-10-17T16:19:14.259Z,9.27
2022-10-17T16:21:41.931Z,9.24
2022-10-17T16:24:13.214Z,9.31
2022-10-17T16:26:41.502Z,9.37
2022-10-17T16:29:10.234Z,9.44
2022-10-17T16:31:42.096Z,9.47
2022-10-17T16:34:13.286Z,9.45
2022-10-17T16:36:41.359Z,9.49
2022-10-17T16:39:09.317Z,9.40
2022-10-17T16:41:38.818Z,9.53
2022-10-17T16:44:08.410Z,9.55
2022-10-17T16:46:37.398Z,9.59
2022-10-17T16:49:05.784Z,9.63
2022-10-17T16:51:36.593Z,9.68
2022-10-17T16:54:04.797Z,9.69
2022-10-17T16:56:33.072Z,9.68
2022-10-17T16:59:01.778Z,9.66
2022-10-17T17:01:30.263Z,9.75
2022-10-17T17:03:58.314Z,9.76
2022-10-17T17:06:28.597Z,9.72
2022-10-17T17:08:57.492Z,9.87
2022-10-17T17:11:27.563Z,9.89
2022-10-17T17:13:57.268Z,9.89
2022-10-17T17:16:26.904Z,9.96
2022-10-17T17:18:56.850Z,10.02
2022-10-17T17:21:25.109Z,10.02
2022-10-17T17:23:52.864Z,10.05
2022-10-17T17:26:22.315Z,10.05
2022-10-17T17:28:51.326Z,10.09
2022-10-17T17:31:27.999Z,10.06
2022-10-17T17:36:32.070Z,9.98
2022-10-17T17:39:01.554Z,9.93
2022-10-17T17:41:29.155Z,9.90
2022-10-17T17:43:57.280Z,9.87
2022-10-17T17:46:25.641Z,9.89
2022-10-17T17:48:54.495Z,9.93
2022-10-17T17:51:28.313Z,9.90
2022-10-17T17:53:57.492Z,9.99
2022-10-17T17:56:27.628Z,10.00
2022-10-17T17:58:57.545Z,10.00
2022-10-17T18:01:37.896Z,10.06
2022-10-17T18:04:08.786Z,10.07
2022-10-17T18:06:38.001Z,10.05
2022-10-17T18:09:07.127Z,10.01
2022-10-17T18:11:35.594Z,9.95
2022-10-17T18:14:06.049Z,10.02
2022-10-17T18:16:35.415Z,10.04
2022-10-17T18:19:06.785Z,10.10
2022-10-17T18:21:35.899Z,10.05
2022-10-17T18:24:04.987Z,10.10
2022-10-17T18:26:33.074Z,10.09
2022-10-17T18:29:01.015Z,10.06
2022-10-17T18:31:32.162Z,10.00
2022-10-17T18:34:02.784Z,9.97
2022-10-17T18:36:31.910Z,9.93
2022-10-17T18:39:00.643Z,9.89
2022-10-17T18:41:28.342Z,9.94
2022-10-17T18:43:57.043Z,10.00
2022-10-17T18:46:30.196Z,10.03
2022-10-17T18:48:58.106Z,10.16
2022-10-17T18:51:26.355Z,10.23
2022-10-17T18:54:02.402Z,10.27
2022-10-17T18:56:31.358Z,10.25
2022-10-17T18:58:58.867Z,10.22
2022-10-17T19:01:27.429Z,10.17
2022-10-17T19:03:57.041Z,10.19
2022-10-17T19:06:27.768Z,10.12
2022-10-17T19:08:55.274Z,10.15
2022-10-17T19:11:25.479Z,9.98
2022-10-17T19:13:54.146Z,10.05
2022-10-17T19:16:25.337Z,10.06
2022-10-17T19:18:55.940Z,10.02
2022-10-17T19:21:24.475Z,10.01
2022-10-17T19:23:57.790Z,10.03
2022-10-17T19:26:27.783Z,9.96
2022-10-17T19:28:56.103Z,9.88
2022-10-17T19:31:27.289Z,9.85
2022-10-17T19:33:56.370Z,9.72
2022-10-17T19:36:30.405Z,9.70
2022-10-17T19:39:08.607Z,9.75
2022-10-17T19:41:39.181Z,9.72
2022-10-17T19:44:07.003Z,9.67
2022-10-17T19:46:34.545Z,9.66
2022-10-17T19:49:04.455Z,9.61
2022-10-17T19:51:53.071Z,9.60
2022-10-17T19:54:56.853Z,9.61
2022-10-17T19:58:17.204Z,9.57
2022-10-17T20:01:05.427Z,9.49
2022-10-17T20:08:05.319Z,9.45
2022-10-17T20:18:49.625Z,9.46
2022-10-17T20:22:15.119Z,9.42
2022-10-17T20:29:25.197Z,9.36
2022-10-17T20:32:14.314Z,9.38
2022-10-17T20:34:41.793Z,9.35
2022-10-17T20:37:09.180Z,9.35
2022-10-17T20:39:36.575Z,9.33
2022-10-17T20:42:03.997Z,9.39
2022-10-17T20:44:31.398Z,9.36
2022-10-17T20:47:02.114Z,9.33
2022-10-17T20:49:31.242Z,9.34
2022-10-17T20:52:47.863Z,9.37
2022-10-17T20:55:34.001Z,9.28
2022-10-17T20:58:01.414Z,9.30
2022-10-17T21:00:29.004Z,9.30
2022-10-17T21:05:28.927Z,9.30
2022-10-17T21:08:11.442Z,9.28
2022-10-17T21:10:38.969Z,9.25
2022-10-17T21:13:06.363Z,9.24
2022-10-17T21:15:33.879Z,9.25
2022-10-17T21:18:01.368Z,9.29
2022-10-17T21:20:37.828Z,9.31
2022-10-17T21:23:23.107Z,9.25
2022-10-17T21:25:50.675Z,9.30
2022-10-17T21:28:18.042Z,9.23
2022-10-17T21:30:45.439Z,9.25
2022-10-17T21:33:12.866Z,9.32
2022-10-17T21:35:40.547Z,9.27
2022-10-17T21:38:07.962Z,9.31
2022-10-17T21:40:35.463Z,9.27
2022-10-17T21:43:02.868Z,9.24
2022-10-17T21:45:30.270Z,9.28
2022-10-17T21:48:13.582Z,9.24
2022-10-17T21:50:41.659Z,9.24
2022-10-17T21:53:09.268Z,9.30
2022-10-17T21:55:37.673Z,9.28
2022-10-17T21:58:05.367Z,9.23
2022-10-17T22:00:32.950Z,9.24
2022-10-17T22:03:01.231Z,9.23
2022-10-17T22:05:30.360Z,9.20
2022-10-17T22:07:57.838Z,9.19
2022-10-17T22:10:25.454Z,9.23
2022-10-17T22:12:53.019Z,9.14
2022-10-17T22:15:20.435Z,9.22
2022-10-17T22:17:47.816Z,9.21
2022-10-17T22:20:15.307Z,9.16
2022-10-17T22:22:42.705Z,9.19
2022-10-17T22:25:10.140Z,9.18
2022-10-17T22:27:37.756Z,9.18
2022-10-17T22:30:05.773Z,9.16
2022-10-17T22:32:33.266Z,9.23
2022-10-17T22:35:00.650Z,9.22
2022-10-17T22:37:28.332Z,9.27
2022-10-17T22:39:55.863Z,9.29
2022-10-17T22:42:23.420Z,9.28
2022-10-17T22:44:50.863Z,9.30
2022-10-17T22:47:18.251Z,9.35
2022-10-17T22:49:45.632Z,9.42
2022-10-17T22:52:13.115Z,9.38
2022-10-17T22:54:40.515Z,9.42
2022-10-17T22:57:10.404Z,9.47
2022-10-17T22:59:37.932Z,9.50
2022-10-17T23:02:05.408Z,9.49
2022-10-17T23:04:33.529Z,9.54
2022-10-17T23:07:00.923Z,9.55
2022-10-17T23:09:28.621Z,9.60
2022-10-17T23:11:56.022Z,9.58
2022-10-17T23:14:23.497Z,9.62
2022-10-17T23:16:51.002Z,9.63
2022-10-17T23:19:18.578Z,9.59
2022-10-17T23:21:46.076Z,9.59
2022-10-17T23:24:13.598Z,9.65
2022-10-17T23:26:40.999Z,9.64
2022-10-17T23:29:08.451Z,9.59
2022-10-17T23:31:35.892Z,9.58
2022-10-17T23:34:03.469Z,9.55
2022-10-17T23:39:03.758Z,9.56
2022-10-17T23:41:31.420Z,9.52
2022-10-17T23:43:59.230Z,9.44
2022-10-17T23:46:26.668Z,9.44
2022-10-17T23:48:54.184Z,9.46
2022-10-17T23:51:21.838Z,9.38
2022-10-17T23:53:49.619Z,9.35
2022-10-17T23:56:17.058Z,9.36
2022-10-17T23:58:44.592Z,9.36
